Hovedside
METAR-TAF:

METAR-TAF

Lufthavner :

Prinsesse Juliana internasjonale lufthavn

Sint Maarten, De nederlandske Antillene

breddegrad: 18-03N, lengdegrad: 063-07W, høyde over havet: 4 m

Gjeldene værobservasjon

Denne rapporten ble laget for 1 time og 3 minutter siden, klokken 16:00 UTC
Vind 13 kt fra Øst, skiftende mellom Nordøst og Øst-sørøst
Temperatur 31°C
Luftfuktighet 59%
Trykk 1020 hPa
Sikt 10 km eller mer
Brutte skyer i en høyde av 2000 ft

METAR: TNCM 171600Z 08013KT 050V110 9999 BKN020 31/22 Q1020 NOSIG RMK A3014 LGT HZ ALSEC

Tid: 13:03 (17:03 UTC)

Varsel

Denne rapporten ble laget for 5 timer og 43 minutter siden, klokken 11:20 UTC
Varsel gyldig fra 17. klokken 12 UTC til 18. klokken 12 UTC
Vind 12 kt fra Øst
Sikt: 10 km
Spredte skyer i en høyde av 2000 ft

TAF: TNCM 171120Z 1712/1812 09012KT P6SM SCT020

Værobservasjoner og værvarsel for over 4000 flyplasser (METAR- og TAF-rapporter).

Tilgjengelige stasjoner er representert av de røde og gule prikkene på kartet.

Hold musepekeren over prikken for å se navnet på stasjonen.

Klikk så for å se værobservasjoner og -varsler.

For å forandre kartet kan du klikke på den grønne knappen med svart kryss for å zoome inn, på den grønne knappen med strek for å zoome ut, eller på de grønne pilene for å se tilstøtende kart.


METAR-TAF: